This is the latest recevied weather packets stored in our database for station/object HS3PIK-2. If no packets are shown the sender has not sent any weather packets the latest 10 day(s).
| Time | Temp. | Humidity | Pressure | Rain* | Wind** | Luminosity | Snow |
|---|---|---|---|---|---|---|---|
| 1778146748 | 28.89° C | 82% | - | - | - | 0 W/m² | - |
| 1778146423 | 28.89° C | 82% | - | - | - | 0 W/m² | - |
| 1778146098 | 29.44° C | 80% | - | - | - | 0 W/m² | - |
| 1778145770 | 30° C | 80% | - | - | - | 0 W/m² | - |
| 1778145445 | 29.44° C | 79% | - | - | - | 0 W/m² | - |
| 1778145120 | 30° C | 78% | - | - | - | 0 W/m² | - |
| 1778144790 | 30.56° C | 79% | - | - | - | 0 W/m² | - |
| 1778144465 | 30.56° C | 79% | - | - | - | 0 W/m² | - |
| 1778144141 | 30.56° C | 78% | - | - | - | 0 W/m² | - |
| 1778143811 | 30.56° C | 77% | - | - | - | 0 W/m² | - |
| 1778143483 | 30.56° C | 77% | - | - | - | 0 W/m² | - |
| 1778143156 | 31.11° C | 77% | - | - | - | 0 W/m² | - |
| 1778142826 | 31.67° C | 76% | - | - | - | 0 W/m² | - |
| 1778142501 | 31.67° C | 75% | - | - | - | 0 W/m² | - |
| 1778142176 | 31.67° C | 76% | - | - | - | 0 W/m² | - |
| 1778141851 | 32.22° C | 75% | - | - | - | 0 W/m² | - |
| 1778141523 | 32.22° C | 73% | - | - | - | 0 W/m² | - |
| 1778141193 | 32.78° C | 70% | - | - | - | 0 W/m² | - |
| 1778140866 | 33.33° C | 67% | - | - | - | 0 W/m² | - |
| 1778140536 | 34.44° C | 67% | - | - | - | 0 W/m² | - |
| 1778140209 | 35.56° C | 64% | - | - | - | 0 W/m² | - |
| 1778139881 | 37.22° C | 59% | - | - | - | 0 W/m² | - |
| 1778139551 | 37.22° C | 60% | - | - | - | 0 W/m² | - |
| 1778139229 | 38.33° C | 55% | - | - | - | 0 W/m² | - |
| 1778138896 | 38.89° C | 57% | - | - | - | 0 W/m² | - |
* Rain since midnight (hover to see other rain measurements)
** Current wind speed in m/s (hover to see current wind gust speed)